Time;durP1;ratioP1;P1;durP2;ratioP2;P2;SDS_P1;SDS_P2;PMS_P1;PMS_P2;Temp;Humidity;BMP_temperature;BMP_pressure;BME280_temperature;BME280_humidity;BME280_pressure;Samples;Min_cycle;Max_cycle;Signal;HPM_P1;HPM_P2
2022/04/22 00:00:51;;;;;;;12.35;6.82;;;;;;;10.90;79.56;100967.88;5086145;28;20052;-57
2022/04/22 00:03:19;;;;;;;11.80;6.53;;;;;;;10.80;80.50;100961.53;5090631;28;20119;-57
2022/04/22 00:05:48;;;;;;;11.95;7.68;;;;;;;10.82;80.36;100960.47;5089891;28;20105;-57
2022/04/22 00:08:18;;;;;;;13.68;7.60;;;;;;;10.87;80.70;100959.34;5086990;28;20056;-57
2022/04/22 00:13:32;;;;;;;11.25;7.00;;;;;;;10.78;80.79;100960.75;5095525;28;20086;-57
2022/04/22 00:16:00;;;;;;;13.73;7.32;;;;;;;10.73;81.71;100965.47;5094263;28;20495;-57
2022/04/22 00:18:28;;;;;;;12.40;7.18;;;;;;;10.69;81.86;100956.94;5090786;28;20131;-58
2022/04/22 00:20:57;;;;;;;14.75;7.75;;;;;;;10.70;81.70;100960.41;5090211;28;20036;-58
2022/04/22 00:23:27;;;;;;;14.60;7.45;;;;;;;10.72;82.06;100961.16;5094873;28;20078;-58
2022/04/22 00:25:56;;;;;;;12.10;7.05;;;;;;;10.64;82.16;100956.38;5094704;28;20048;-58
2022/04/22 00:28:24;;;;;;;10.77;6.53;;;;;;;10.60;82.64;100949.63;5094525;28;20074;-58
2022/04/22 00:30:53;;;;;;;10.43;6.72;;;;;;;10.62;82.63;100958.25;5094845;28;20055;-58
2022/04/22 00:33:21;;;;;;;12.15;7.00;;;;;;;10.63;82.37;100944.16;5094663;28;20044;-57
2022/04/22 00:35:49;;;;;;;11.07;7.55;;;;;;;10.51;82.94;100951.03;5094716;28;20504;-57
2022/04/22 00:38:18;;;;;;;12.02;7.60;;;;;;;10.50;83.42;100949.38;5094805;28;20443;-57
2022/04/22 00:40:48;;;;;;;11.25;7.15;;;;;;;10.47;83.67;100945.16;5094599;28;20048;-58
2022/04/22 00:43:17;;;;;;;12.70;7.90;;;;;;;10.45;83.50;100946.19;5094553;28;20052;-57
2022/04/22 00:45:47;;;;;;;13.88;7.68;;;;;;;10.46;83.64;100942.63;5094663;28;20036;-58
2022/04/22 00:48:18;;;;;;;12.32;7.85;;;;;;;10.44;84.21;100948.00;5094473;28;21155;-58
2022/04/22 00:50:47;;;;;;;15.27;7.72;;;;;;;10.39;84.92;100941.31;5094430;28;20032;-58
2022/04/22 00:53:16;;;;;;;13.50;7.93;;;;;;;10.37;85.76;100936.16;5094405;28;20121;-58
2022/04/22 00:55:47;;;;;;;13.48;7.88;;;;;;;10.32;85.46;100932.91;5089826;28;20051;-49
2022/04/22 00:58:15;;;;;;;13.38;7.53;;;;;;;10.31;85.80;100933.88;5088197;28;20166;-52
2022/04/22 01:00:44;;;;;;;12.32;7.07;;;;;;;10.30;85.87;100927.75;5093683;28;20907;-53
2022/04/22 01:03:13;;;;;;;13.18;7.50;;;;;;;10.29;85.77;100920.84;5093171;28;20051;-52
2022/04/22 01:11:31;;;;;;;11.90;6.88;;;;;;;10.26;85.99;100926.25;5055726;28;20470;-55
2022/04/22 01:14:00;;;;;;;12.45;7.20;;;;;;;10.21;86.22;100915.22;5090602;28;20032;-56
2022/04/22 01:16:29;;;;;;;13.30;6.72;;;;;;;10.17;86.92;100913.72;5089398;28;20044;-51
2022/04/22 01:18:57;;;;;;;12.50;6.97;;;;;;;10.14;86.60;100908.63;5093098;28;20493;-50
2022/04/22 01:21:27;;;;;;;13.00;7.22;;;;;;;10.09;88.43;100905.44;5092853;28;20044;-48
2022/04/22 01:23:55;;;;;;;12.40;7.32;;;;;;;10.13;87.11;100907.81;5093535;28;20619;-52
2022/04/22 01:26:24;;;;;;;10.68;6.95;;;;;;;10.08;88.25;100903.78;5093676;28;20047;-52
2022/04/22 01:28:52;;;;;;;13.43;7.32;;;;;;;10.05;87.63;100909.19;5088596;28;20701;-58
2022/04/22 01:31:23;;;;;;;11.68;6.80;;;;;;;10.12;88.04;100902.66;5089051;28;20044;-58
2022/04/22 01:33:51;;;;;;;12.52;6.57;;;;;;;10.04;88.61;100900.47;5092823;28;20450;-54
2022/04/22 01:36:20;;;;;;;12.88;6.65;;;;;;;9.98;89.35;100890.38;5092954;28;20048;-54
2022/04/22 01:38:49;;;;;;;10.63;6.63;;;;;;;9.97;89.75;100897.38;5092977;28;20055;-59
2022/04/22 01:41:18;;;;;;;13.27;8.07;;;;;;;9.88;90.21;100887.44;5093519;28;20036;-51
2022/04/22 01:43:46;;;;;;;14.05;6.75;;;;;;;9.90;89.49;100884.75;5093454;28;20494;-53
2022/04/22 01:46:15;;;;;;;11.05;6.70;;;;;;;9.90;90.22;100887.38;5093172;28;20056;-57
2022/04/22 01:48:43;;;;;;;12.63;7.22;;;;;;;9.87;90.44;100888.41;5093059;28;20507;-49
2022/04/22 01:51:12;;;;;;;13.30;7.35;;;;;;;9.76;91.03;100880.31;5092387;28;20135;-53
2022/04/22 01:53:40;;;;;;;11.48;6.85;;;;;;;9.81;90.61;100881.72;5092433;28;20080;-52
2022/04/22 01:56:10;;;;;;;11.95;7.10;;;;;;;9.84;90.32;100887.75;5090376;28;20485;-52
2022/04/22 01:58:38;;;;;;;14.43;7.22;;;;;;;9.77;91.51;100889.91;5087867;28;20079;-49
2022/04/22 02:01:06;;;;;;;11.35;7.00;;;;;;;9.79;90.52;100885.41;5089567;28;20131;-49
2022/04/22 02:03:35;;;;;;;13.18;7.13;;;;;;;9.74;91.89;100890.09;5092928;28;20051;-51
2022/04/22 02:06:04;;;;;;;13.98;6.93;;;;;;;9.69;92.60;100881.63;5092828;28;20044;-48
2022/04/22 02:08:32;;;;;;;13.32;7.35;;;;;;;9.60;93.04;100889.13;5093016;28;20479;-52
2022/04/22 02:11:02;;;;;;;12.35;7.38;;;;;;;9.62;93.47;100878.53;5086297;28;20519;-53
2022/04/22 02:13:36;;;;;;;12.63;7.10;;;;;;;9.53;94.26;100879.94;5089554;28;20044;-48
2022/04/22 02:16:06;;;;;;;13.00;7.50;;;;;;;9.56;93.72;100882.38;5092787;28;20726;-52
2022/04/22 02:18:37;;;;;;;15.52;7.32;;;;;;;9.45;94.97;100880.41;5093066;28;20083;-50
2022/04/22 02:21:06;;;;;;;12.20;7.00;;;;;;;9.42;95.52;100883.22;5092474;28;20047;-49
2022/04/22 02:23:34;;;;;;;12.02;7.35;;;;;;;9.54;95.79;100884.25;5092526;28;20071;-48
2022/04/22 02:26:03;;;;;;;12.13;7.80;;;;;;;9.50;96.10;100881.91;5091812;28;20127;-52
2022/04/22 02:28:33;;;;;;;15.32;7.57;;;;;;;9.51;95.87;100881.81;5089985;28;20052;-49
2022/04/22 02:31:04;;;;;;;14.20;7.47;;;;;;;9.48;96.46;100874.13;5087043;28;20044;-57
2022/04/22 02:33:33;;;;;;;12.50;7.38;;;;;;;9.48;97.07;100876.75;5092003;28;20091;-57
2022/04/22 02:36:02;;;;;;;12.75;6.93;;;;;;;9.44;97.17;100883.13;5092170;28;20048;-57
2022/04/22 02:38:32;;;;;;;12.45;7.45;;;;;;;9.36;98.74;100875.69;5090751;28;20051;-57
2022/04/22 02:46:34;;;;;;;10.07;6.55;;;;;;;9.34;98.63;100877.59;5092512;28;20090;-58
2022/04/22 02:49:02;;;;;;;11.43;6.85;;;;;;;9.30;99.30;100871.66;5092005;28;20122;-58
2022/04/22 02:51:30;;;;;;;12.50;7.05;;;;;;;9.23;100.00;100874.72;5092225;28;20491;-58
2022/04/22 02:53:59;;;;;;;12.00;6.72;;;;;;;9.19;100.00;100873.22;5092026;28;20456;-56
2022/04/22 02:56:27;;;;;;;12.85;6.75;;;;;;;9.10;100.00;100869.38;5091243;28;20048;-57
2022/04/22 02:58:58;;;;;;;13.48;6.50;;;;;;;9.14;100.00;100870.88;5087273;28;20343;-58
2022/04/22 03:01:26;;;;;;;12.45;6.88;;;;;;;9.13;100.00;100869.19;5089542;28;20498;-58
2022/04/22 03:03:55;;;;;;;11.85;6.68;;;;;;;9.11;100.00;100866.66;5089032;28;20051;-57
2022/04/22 03:06:26;;;;;;;10.88;6.50;;;;;;;9.07;100.00;100872.19;5086577;28;20130;-49
2022/04/22 03:08:54;;;;;;;11.88;7.20;;;;;;;9.07;100.00;100869.56;5090806;28;20052;-52
2022/04/22 03:11:23;;;;;;;11.48;6.80;;;;;;;9.03;100.00;100862.78;5092082;28;20044;-53
2022/04/22 03:13:51;;;;;;;13.85;7.38;;;;;;;9.12;100.00;100872.72;5092061;28;20050;-53
2022/04/22 03:16:25;;;;;;;12.57;7.28;;;;;;;9.04;100.00;100873.19;5089905;28;20039;-51
2022/04/22 03:18:54;;;;;;;15.10;7.95;;;;;;;8.98;100.00;100865.66;5086931;28;20075;-50
2022/04/22 03:21:22;;;;;;;14.40;8.20;;;;;;;9.02;100.00;100858.47;5091223;28;20097;-54
2022/04/22 03:23:51;;;;;;;14.40;7.30;;;;;;;9.02;100.00;100855.84;5091626;28;20043;-52
2022/04/22 03:26:20;;;;;;;12.95;8.32;;;;;;;8.96;100.00;100857.88;5087886;28;20052;-50
2022/04/22 03:28:55;;;;;;;14.38;7.78;;;;;;;8.96;100.00;100860.50;5086859;28;20059;-50
2022/04/22 03:31:25;;;;;;;16.15;8.45;;;;;;;8.90;100.00;100857.41;5089964;28;20043;-50
2022/04/22 03:33:54;;;;;;;13.75;7.57;;;;;;;8.91;100.00;100862.56;5091722;28;20071;-51
2022/04/22 03:36:22;;;;;;;16.63;8.48;;;;;;;8.94;100.00;100853.66;5091705;28;20051;-58
2022/04/22 03:38:50;;;;;;;13.90;8.55;;;;;;;8.96;100.00;100860.50;5090231;28;20105;-59
2022/04/22 03:41:19;;;;;;;15.70;8.73;;;;;;;8.88;100.00;100852.25;5085556;28;20044;-51
2022/04/22 03:43:47;;;;;;;16.88;10.23;;;;;;;8.88;100.00;100848.78;5089727;28;20048;-58
2022/04/22 03:46:15;;;;;;;14.30;9.60;;;;;;;8.87;100.00;100847.09;5094165;28;20051;-52
2022/04/22 03:48:46;;;;;;;17.35;9.40;;;;;;;8.88;100.00;100844.38;5094815;28;20052;-51
2022/04/22 03:51:14;;;;;;;16.20;9.32;;;;;;;8.82;100.00;100844.75;5091263;28;20777;-48
2022/04/22 03:53:43;;;;;;;16.73;9.88;;;;;;;8.83;100.00;100843.78;5092374;28;20040;-50
2022/04/22 03:58:57;;;;;;;16.35;8.98;;;;;;;8.80;100.00;100842.19;5095249;28;20079;-50
2022/04/22 04:01:26;;;;;;;16.40;9.40;;;;;;;8.74;100.00;100846.94;5095515;28;20531;-58
2022/04/22 04:03:56;;;;;;;13.70;8.98;;;;;;;8.75;100.00;100849.50;5095537;28;20102;-58
2022/04/22 04:06:25;;;;;;;16.88;10.43;;;;;;;8.72;100.00;100844.41;5095575;28;20109;-57
2022/04/22 04:17:09;;;;;;;17.40;10.45;;;;;;;8.59;100.00;100849.53;5091802;28;20048;-49
2022/04/22 04:25:10;;;;;;;15.90;9.98;;;;;;;8.53;100.00;100849.03;5094978;28;20047;-58
2022/04/22 04:27:39;;;;;;;16.98;11.32;;;;;;;8.58;100.00;100845.19;5095162;28;20482;-57
2022/04/22 04:30:08;;;;;;;16.45;10.48;;;;;;;8.59;100.00;100844.28;5090839;28;20070;-58
2022/04/22 04:32:37;;;;;;;16.25;9.88;;;;;;;8.55;100.00;100848.00;5090963;28;20108;-58
2022/04/22 04:35:07;;;;;;;16.60;10.43;;;;;;;8.60;100.00;100845.97;5094587;28;20074;-57
2022/04/22 04:37:41;;;;;;;15.57;9.57;;;;;;;8.59;100.00;100843.44;5092464;28;20044;-58
2022/04/22 04:40:10;;;;;;;16.13;10.10;;;;;;;8.65;100.00;100847.50;5089415;28;20055;-58
2022/04/22 04:42:40;;;;;;;16.08;11.75;;;;;;;8.63;100.00;100840.56;5092728;28;20048;-58
2022/04/22 04:45:09;;;;;;;18.30;11.52;;;;;;;8.57;100.00;100835.63;5094622;28;20043;-57
2022/04/22 04:47:41;;;;;;;16.40;10.55;;;;;;;8.62;100.00;100846.72;5092945;28;20047;-58
2022/04/22 04:50:12;;;;;;;19.35;11.70;;;;;;;8.53;100.00;100838.53;5090194;28;20148;-58
2022/04/22 04:52:41;;;;;;;17.10;10.82;;;;;;;8.59;100.00;100839.03;5092140;28;20055;-58
2022/04/22 04:55:11;;;;;;;16.80;10.77;;;;;;;8.56;100.00;100838.34;5094024;28;20036;-53
2022/04/22 04:57:39;;;;;;;16.27;10.88;;;;;;;8.50;100.00;100841.34;5092423;28;20407;-58
2022/04/22 05:00:15;;;;;;;15.70;10.80;;;;;;;8.51;100.00;100833.38;5092093;28;20498;-57
2022/04/22 05:02:43;;;;;;;15.75;10.80;;;;;;;8.52;100.00;100828.97;5088947;28;20115;-52
2022/04/22 05:05:13;;;;;;;16.92;10.88;;;;;;;8.53;100.00;100828.06;5091576;28;20126;-53
2022/04/22 05:07:49;;;;;;;16.25;11.20;;;;;;;8.55;100.00;100834.91;5093837;28;20119;-50
2022/04/22 05:10:19;;;;;;;16.00;11.27;;;;;;;8.53;100.00;100833.28;5093943;28;20083;-49
2022/04/22 05:12:47;;;;;;;20.05;11.40;;;;;;;8.56;100.00;100833.13;5093410;28;20112;-50
2022/04/22 05:15:17;;;;;;;16.27;11.45;;;;;;;8.51;100.00;100829.91;5093670;28;20407;-58
2022/04/22 05:17:47;;;;;;;14.70;10.32;;;;;;;8.55;100.00;100832.28;5090586;28;20097;-58
2022/04/22 05:20:19;;;;;;;17.00;10.95;;;;;;;8.50;100.00;100833.47;5089474;28;20142;-58
2022/04/22 05:22:48;;;;;;;15.88;10.95;;;;;;;8.49;100.00;100830.00;5093490;28;20791;-59
2022/04/22 05:25:17;;;;;;;17.20;11.90;;;;;;;8.50;100.00;100838.72;5093890;28;20044;-58
2022/04/22 05:27:45;;;;;;;17.45;10.82;;;;;;;8.52;100.00;100829.84;5093665;28;20046;-53
2022/04/22 05:33:04;;;;;;;16.92;10.88;;;;;;;8.57;100.00;100834.81;5093190;28;20079;-56
2022/04/22 05:35:34;;;;;;;16.67;11.68;;;;;;;8.65;100.00;100826.50;5092038;28;20055;-57
2022/04/22 05:38:05;;;;;;;18.52;11.40;;;;;;;8.70;100.00;100824.44;5088708;28;20134;-52
2022/04/22 05:40:34;;;;;;;17.42;11.35;;;;;;;8.75;100.00;100831.16;5091617;28;20093;-53
2022/04/22 05:43:03;;;;;;;17.05;11.23;;;;;;;8.76;100.00;100830.19;5088373;28;20032;-58
2022/04/22 05:45:32;;;;;;;17.27;10.75;;;;;;;8.81;100.00;100832.56;5089360;28;20469;-57
2022/04/22 05:48:00;;;;;;;17.60;11.30;;;;;;;8.83;100.00;100828.06;5093217;28;20044;-47
2022/04/22 05:50:29;;;;;;;18.27;11.23;;;;;;;8.91;100.00;100838.13;5090784;28;20083;-50
2022/04/22 05:52:59;;;;;;;16.40;10.88;;;;;;;8.85;100.00;100834.06;5088354;28;20040;-50
2022/04/22 05:55:29;;;;;;;16.92;11.70;;;;;;;8.97;100.00;100835.13;5092349;28;20475;-58
2022/04/22 05:57:59;;;;;;;17.75;11.65;;;;;;;8.94;100.00;100830.94;5092523;28;20093;-58
2022/04/22 06:00:31;;;;;;;18.23;12.38;;;;;;;8.92;100.00;100822.28;5088853;28;20063;-58
2022/04/22 06:03:00;;;;;;;18.03;11.93;;;;;;;9.07;100.00;100827.56;5089474;28;20054;-52
2022/04/22 06:05:29;;;;;;;19.27;11.48;;;;;;;9.11;100.00;100835.16;5090139;28;21086;-50
2022/04/22 06:10:44;;;;;;;15.27;10.77;;;;;;;9.19;100.00;100831.22;5092780;28;20051;-48
2022/04/22 06:13:12;;;;;;;19.95;11.60;;;;;;;9.17;100.00;100828.69;5092570;28;20102;-47
2022/04/22 06:15:41;;;;;;;16.58;11.20;;;;;;;9.20;100.00;100833.75;5090170;28;20044;-58
2022/04/22 06:18:09;;;;;;;18.70;11.80;;;;;;;9.29;100.00;100840.25;5088043;28;20051;-51
2022/04/22 06:20:37;;;;;;;17.48;11.05;;;;;;;9.22;100.00;100839.78;5091678;28;20052;-57
2022/04/22 06:23:06;;;;;;;19.00;12.45;;;;;;;9.37;100.00;100837.19;5087874;28;20048;-57
2022/04/22 06:25:34;;;;;;;25.52;13.50;;;;;;;9.43;100.00;100829.75;5088724;28;20487;-58
2022/04/22 06:28:06;;;;;;;17.50;12.45;;;;;;;9.46;100.00;100828.72;5092439;28;20044;-57
2022/04/22 06:30:34;;;;;;;16.88;11.73;;;;;;;9.50;100.00;100822.34;5092478;28;20123;-57
2022/04/22 06:33:03;;;;;;;15.18;10.60;;;;;;;9.64;100.00;100817.13;5088300;28;20056;-57
2022/04/22 06:35:32;;;;;;;18.65;11.77;;;;;;;9.78;100.00;100831.19;5088243;28;20044;-51
2022/04/22 06:38:01;;;;;;;18.15;12.30;;;;;;;9.94;100.00;100829.28;5092315;28;20525;-51
2022/04/22 06:46:03;;;;;;;17.60;11.82;;;;;;;10.33;100.00;100821.56;5087823;28;20109;-50
2022/04/22 06:48:34;;;;;;;17.73;11.48;;;;;;;10.39;100.00;100826.47;5092459;28;20601;-53
2022/04/22 06:51:13;;;;;;;20.25;12.30;;;;;;;10.51;100.00;100824.00;5091996;28;20115;-49
2022/04/22 06:53:42;;;;;;;19.92;12.48;;;;;;;10.50;100.00;100820.53;5092165;28;20124;-58
2022/04/22 06:56:13;;;;;;;17.55;11.52;;;;;;;10.54;100.00;100822.03;5086622;28;20064;-49
2022/04/22 06:58:44;;;;;;;17.02;11.35;;;;;;;10.55;100.00;100823.72;5088063;28;20052;-49
2022/04/22 07:01:13;;;;;;;20.40;11.65;;;;;;;10.67;100.00;100818.59;5091875;28;20044;-58
2022/04/22 07:04:01;;;;;;;17.95;11.85;;;;;;;10.83;100.00;100816.63;5091846;28;20052;-53
2022/04/22 07:06:31;;;;;;;18.73;11.77;;;;;;;10.97;100.00;100813.88;5090442;28;20125;-51
2022/04/22 07:09:00;;;;;;;20.30;12.52;;;;;;;11.02;100.00;100813.59;5091651;28;20134;-52
2022/04/22 07:11:30;;;;;;;20.55;11.57;;;;;;;11.16;99.51;100823.19;5091716;28;20052;-50
2022/04/22 07:14:01;;;;;;;17.33;12.15;;;;;;;11.25;97.97;100819.94;5091821;28;20048;-58
2022/04/22 07:16:30;;;;;;;17.10;11.43;;;;;;;11.45;97.57;100820.34;5091765;28;20360;-49
2022/04/22 07:18:59;;;;;;;16.35;10.23;;;;;;;11.44;95.87;100813.41;5091827;28;20063;-58
2022/04/22 07:21:29;;;;;;;17.70;11.02;;;;;;;11.59;95.41;100809.69;5091249;28;20048;-58
2022/04/22 07:23:58;;;;;;;18.70;11.40;;;;;;;11.82;94.79;100810.72;5090252;28;20047;-51
2022/04/22 07:26:27;;;;;;;19.33;11.45;;;;;;;11.95;93.08;100800.16;5085565;28;20487;-49
2022/04/22 07:29:00;;;;;;;16.55;11.40;;;;;;;12.17;91.52;100803.88;5090082;28;20522;-51
2022/04/22 07:31:31;;;;;;;17.65;10.65;;;;;;;12.10;91.29;100802.66;5091862;28;20062;-58
2022/04/22 07:34:00;;;;;;;17.63;10.48;;;;;;;12.34;90.77;100797.41;5091666;28;20052;-58
2022/04/22 07:36:29;;;;;;;16.10;10.90;;;;;;;12.41;89.28;100784.59;5091835;28;20550;-57
2022/04/22 07:38:58;;;;;;;16.95;11.02;;;;;;;12.62;88.00;100790.06;5092092;28;20414;-53
2022/04/22 07:41:29;;;;;;;15.30;10.13;;;;;;;12.79;87.61;100794.94;5091759;28;20044;-51
2022/04/22 07:46:48;;;;;;;16.05;10.65;;;;;;;12.82;84.74;100794.69;5090579;28;20056;-54
2022/04/22 07:49:20;;;;;;;17.42;10.68;;;;;;;12.82;85.35;100801.78;5087406;28;20059;-49
2022/04/22 07:51:50;;;;;;;16.77;10.98;;;;;;;12.79;85.04;100802.03;5089715;28;20044;-53
2022/04/22 07:54:24;;;;;;;16.00;10.25;;;;;;;12.89;85.03;100805.63;5091429;28;20052;-51
2022/04/22 07:56:52;;;;;;;16.92;10.55;;;;;;;13.08;84.15;100798.97;5090276;28;20048;-53
2022/04/22 07:59:24;;;;;;;15.18;9.70;;;;;;;13.31;82.95;100815.69;5087338;28;20056;-51
2022/04/22 08:01:52;;;;;;;18.15;10.82;;;;;;;13.25;82.35;100811.72;5087644;28;20060;-54
2022/04/22 08:04:20;;;;;;;15.25;9.45;;;;;;;13.30;82.48;100814.00;5091332;28;20055;-53
2022/04/22 08:06:50;;;;;;;15.48;9.88;;;;;;;13.27;81.96;100809.78;5091366;28;20052;-51
2022/04/22 08:09:38;;;;;;;13.57;9.07;;;;;;;13.21;81.05;100806.78;5090358;28;20052;-50
2022/04/22 08:12:08;;;;;;;15.68;10.30;;;;;;;13.25;81.47;100809.06;5084723;28;20171;-51
2022/04/22 08:14:38;;;;;;;19.20;11.32;;;;;;;13.48;81.84;100801.19;5089117;28;20503;-58
2022/04/22 08:17:07;;;;;;;17.67;9.38;;;;;;;13.84;81.11;100793.97;5091322;28;20052;-59
2022/04/22 08:19:35;;;;;;;15.50;9.80;;;;;;;13.98;79.63;100803.44;5089852;28;20056;-57
2022/04/22 08:22:04;;;;;;;17.63;10.65;;;;;;;13.81;78.55;100791.53;5086493;28;20097;-57
2022/04/22 08:24:33;;;;;;;16.23;9.38;;;;;;;13.91;78.18;100803.09;5088176;28;20048;-59
2022/04/22 08:27:02;;;;;;;15.27;10.75;;;;;;;13.72;79.16;100797.59;5091552;28;20086;-58
2022/04/22 08:29:30;;;;;;;15.75;9.60;;;;;;;13.92;78.18;100788.03;5091326;28;20044;-58
2022/04/22 08:32:00;;;;;;;16.60;10.25;;;;;;;13.98;78.39;100791.03;5092924;28;20055;-58
2022/04/22 08:34:28;;;;;;;17.80;10.45;;;;;;;13.94;77.53;100786.97;5094723;28;20046;-58
2022/04/22 08:36:57;;;;;;;15.05;10.02;;;;;;;13.94;77.36;100788.78;5094685;28;20044;-52
2022/04/22 08:39:26;;;;;;;13.68;9.70;;;;;;;13.94;76.60;100789.59;5094889;28;20084;-53
2022/04/22 08:41:56;;;;;;;14.02;9.25;;;;;;;14.05;76.02;100790.56;5094555;28;20105;-54
2022/04/22 08:44:43;;;;;;;15.35;9.88;;;;;;;14.12;76.13;100789.09;5094052;28;20068;-54
2022/04/22 08:49:59;;;;;;;16.02;9.85;;;;;;;14.46;75.50;100783.69;5091563;28;20121;-52
2022/04/22 08:52:28;;;;;;;14.27;8.98;;;;;;;14.52;74.55;100788.50;5094467;28;20044;-56
2022/04/22 08:54:57;;;;;;;16.45;9.48;;;;;;;14.58;74.33;100782.69;5094356;28;20051;-57
2022/04/22 08:57:27;;;;;;;14.90;9.05;;;;;;;14.48;74.99;100779.09;5093800;28;20075;-57
2022/04/22 09:00:00;;;;;;;13.07;8.75;;;;;;;14.70;73.07;100786.97;5089249;28;20106;-57
2022/04/22 09:02:30;;;;;;;16.23;8.88;;;;;;;14.80;72.37;100789.69;5092049;28;20070;-58
2022/04/22 09:04:59;;;;;;;13.88;8.95;;;;;;;15.05;73.28;100782.31;5094401;28;20470;-52
2022/04/22 09:07:28;;;;;;;14.68;9.40;;;;;;;15.16;71.67;100778.75;5094094;28;20043;-54
2022/04/22 09:09:56;;;;;;;17.05;10.57;;;;;;;15.32;70.45;100773.81;5094138;28;20044;-53
2022/04/22 09:12:26;;;;;;;14.73;9.65;;;;;;;15.53;69.18;100779.06;5093729;28;20139;-53
2022/04/22 09:14:56;;;;;;;13.82;8.45;;;;;;;15.78;68.92;100770.78;5093818;28;20140;-51
2022/04/22 09:17:27;;;;;;;15.27;8.30;;;;;;;15.94;67.76;100776.44;5094242;28;21139;-53
2022/04/22 09:19:58;;;;;;;14.00;8.27;;;;;;;15.61;67.68;100774.91;5093758;28;20055;-49
2022/04/22 09:22:27;;;;;;;14.30;8.02;;;;;;;15.97;66.44;100760.22;5094134;28;20511;-58
2022/04/22 09:24:57;;;;;;;12.70;7.90;;;;;;;16.02;65.55;100757.16;5092337;28;20083;-54
2022/04/22 09:27:32;;;;;;;14.30;7.93;;;;;;;16.21;64.22;100753.69;5093881;28;20886;-50
2022/04/22 09:30:02;;;;;;;13.57;8.07;;;;;;;16.44;62.83;100750.78;5093770;28;20101;-58
2022/04/22 09:32:31;;;;;;;14.77;8.07;;;;;;;16.42;62.13;100744.78;5093552;28;20502;-53
2022/04/22 09:35:10;;;;;;;12.43;8.05;;;;;;;16.73;62.62;100748.91;5093798;28;20491;-49
2022/04/22 09:43:26;;;;;;;14.82;7.50;;;;;;;16.79;60.68;100738.72;5092813;28;20519;-58
2022/04/22 09:45:54;;;;;;;12.07;7.07;;;;;;;16.96;61.46;100742.47;5091936;28;20097;-58
2022/04/22 09:48:23;;;;;;;13.65;6.95;;;;;;;16.94;59.87;100739.13;5093339;28;20051;-58
2022/04/22 09:50:56;;;;;;;11.65;7.20;;;;;;;17.13;59.47;100738.22;5093241;28;20044;-58
2022/04/22 09:53:33;;;;;;;10.73;6.63;;;;;;;17.11;60.29;100730.41;5089306;28;20048;-58
2022/04/22 09:56:11;;;;;;;14.40;6.93;;;;;;;16.96;61.59;100732.69;5089446;28;20247;-57
2022/04/22 09:58:39;;;;;;;10.68;6.63;;;;;;;17.03;62.03;100731.13;5093337;28;20052;-57
2022/04/22 10:01:08;;;;;;;11.48;6.88;;;;;;;17.30;60.31;100726.84;5089840;28;20054;-57
2022/04/22 10:03:38;;;;;;;12.70;6.80;;;;;;;16.99;61.02;100719.13;5088590;28;20052;-57
2022/04/22 10:06:08;;;;;;;10.00;6.80;;;;;;;16.80;59.94;100722.63;5091762;28;20056;-56
2022/04/22 10:08:37;;;;;;;12.32;7.38;;;;;;;16.88;61.17;100720.09;5089019;28;20091;-57
2022/04/22 10:11:06;;;;;;;11.55;6.75;;;;;;;17.17;60.78;100711.22;5090285;28;20126;-53
2022/04/22 10:13:42;;;;;;;11.25;7.32;;;;;;;16.84;60.17;100720.53;5092917;28;20048;-53
2022/04/22 10:16:11;;;;;;;13.75;6.70;;;;;;;17.09;60.39;100713.78;5092768;28;20123;-53
2022/04/22 10:18:40;;;;;;;15.00;6.97;;;;;;;17.31;59.82;100706.41;5092977;28;20056;-54
2022/04/22 10:21:11;;;;;;;12.95;7.22;;;;;;;17.52;58.31;100696.38;5092616;28;20062;-52
2022/04/22 10:23:46;;;;;;;10.10;6.50;;;;;;;17.48;58.46;100705.63;5092600;28;20105;-58
2022/04/22 10:26:14;;;;;;;9.70;6.03;;;;;;;17.53;57.22;100697.19;5092176;28;20055;-58
2022/04/22 10:28:45;;;;;;;11.02;6.22;;;;;;;17.34;57.08;100699.00;5090931;28;20044;-55
2022/04/22 10:31:15;;;;;;;12.30;6.32;;;;;;;17.40;57.51;100690.41;5092148;28;20133;-59
2022/04/22 10:33:44;;;;;;;11.10;6.40;;;;;;;17.61;56.70;100689.31;5092237;28;20123;-55
2022/04/22 10:36:15;;;;;;;11.40;6.47;;;;;;;17.68;56.59;100677.09;5091864;28;20059;-53
2022/04/22 10:38:47;;;;;;;10.23;6.03;;;;;;;17.92;55.71;100686.31;5092129;28;20356;-54
2022/04/22 10:41:17;;;;;;;10.88;5.90;;;;;;;17.70;55.93;100682.25;5091877;28;20059;-54
2022/04/22 10:47:13;;;;;;;8.98;6.05;;;;;;;17.39;56.11;100674.59;5092016;28;20054;-55
2022/04/22 10:49:40;;;;;;;11.98;6.30;;;;;;;17.57;55.94;100687.94;5087446;28;20094;-54
2022/04/22 10:52:14;;;;;;;8.63;5.47;;;;;;;17.51;55.37;100678.72;5092476;28;20052;-58
2022/04/22 10:55:08;;;;;;;11.75;6.00;;;;;;;17.35;55.00;100662.59;5091731;28;20097;-55
2022/04/22 10:57:39;;;;;;;10.18;6.13;;;;;;;17.38;55.45;100663.16;5091963;28;20475;-58
2022/04/22 11:00:30;;;;;;;9.95;5.50;;;;;;;17.22;55.97;100655.81;5092065;28;20071;-59
2022/04/22 11:03:04;;;;;;;8.88;5.65;;;;;;;17.28;54.94;100662.34;5089909;28;20048;-57
2022/04/22 11:05:37;;;;;;;11.93;5.68;;;;;;;17.35;54.67;100659.94;5087325;28;20044;-55
2022/04/22 11:08:08;;;;;;;9.75;5.43;;;;;;;17.39;54.73;100662.16;5090865;28;20109;-54
2022/04/22 11:11:01;;;;;;;10.90;5.28;;;;;;;17.35;54.44;100657.28;5091999;28;20044;-58
2022/04/22 11:13:32;;;;;;;8.90;5.57;;;;;;;17.26;54.40;100650.19;5089760;28;20070;-58
2022/04/22 11:16:05;;;;;;;15.18;5.72;;;;;;;17.38;54.28;100652.53;5086982;28;20044;-54
2022/04/22 11:18:34;;;;;;;13.70;5.65;;;;;;;17.68;53.24;100660.28;5090571;28;20048;-55
2022/04/22 11:21:04;;;;;;;9.07;4.70;;;;;;;17.66;53.44;100663.09;5092133;28;20723;-55
2022/04/22 11:23:39;;;;;;;9.15;5.07;;;;;;;17.64;51.57;100650.94;5092084;28;20458;-56
2022/04/22 11:26:08;;;;;;;9.55;4.65;;;;;;;17.85;50.63;100656.81;5091827;28;20127;-54
2022/04/22 11:28:38;;;;;;;10.63;4.65;;;;;;;17.90;51.16;100656.34;5091814;28;20087;-58
2022/04/22 11:31:07;;;;;;;7.85;3.88;;;;;;;17.90;50.42;100653.69;5092085;28;20518;-58
2022/04/22 11:33:45;;;;;;;8.02;4.25;;;;;;;17.80;48.50;100643.13;5091611;28;20048;-58
2022/04/22 11:36:14;;;;;;;10.50;4.40;;;;;;;17.76;48.57;100640.94;5086937;28;20050;-55
2022/04/22 11:38:48;;;;;;;11.48;4.63;;;;;;;17.88;47.52;100642.38;5088761;28;20088;-54
2022/04/22 11:41:17;;;;;;;9.18;4.65;;;;;;;18.05;47.87;100648.69;5091404;28;20052;-55
2022/04/22 11:43:46;;;;;;;8.00;4.30;;;;;;;18.44;46.94;100636.84;5091618;28;20042;-54
2022/04/22 11:46:16;;;;;;;10.48;4.97;;;;;;;18.73;46.18;100631.19;5091450;28;20039;-53
2022/04/22 11:48:46;;;;;;;13.38;4.35;;;;;;;18.86;45.43;100652.06;5088893;28;20055;-58
2022/04/22 11:51:19;;;;;;;8.52;4.20;;;;;;;18.57;44.68;100634.59;5086571;28;20060;-58
2022/04/22 11:53:51;;;;;;;9.80;4.45;;;;;;;18.45;44.44;100641.16;5089717;28;20047;-51
2022/04/22 11:56:22;;;;;;;13.03;4.70;;;;;;;18.10;46.23;100641.09;5091309;28;20083;-52
2022/04/22 11:58:54;;;;;;;8.80;4.72;;;;;;;17.91;46.28;100631.41;5091979;28;20056;-53
2022/04/22 12:06:58;;;;;;;12.20;4.90;;;;;;;17.82;47.79;100627.00;5092307;28;20056;-59
2022/04/22 12:09:29;;;;;;;9.45;4.75;;;;;;;17.52;46.88;100621.06;5095348;28;20047;-57
2022/04/22 12:12:00;;;;;;;9.48;4.28;;;;;;;17.78;46.70;100625.63;5095406;28;20058;-53
2022/04/22 12:14:30;;;;;;;9.55;4.93;;;;;;;17.76;46.82;100609.84;5092772;28;20060;-58
2022/04/22 12:16:59;;;;;;;9.20;4.80;;;;;;;17.85;46.63;100614.25;5090099;28;20036;-55
2022/04/22 12:19:29;;;;;;;8.15;4.60;;;;;;;17.86;46.54;100617.72;5094600;28;20388;-60
2022/04/22 12:21:57;;;;;;;9.02;5.00;;;;;;;18.07;46.63;100606.81;5095530;28;20478;-58
2022/04/22 12:24:27;;;;;;;7.90;5.30;;;;;;;18.36;45.61;100593.19;5094944;28;20084;-59
2022/04/22 12:26:55;;;;;;;10.20;5.10;;;;;;;18.70;45.23;100597.69;5094843;28;20040;-59
2022/04/22 12:29:30;;;;;;;8.93;5.07;;;;;;;18.63;43.75;100593.19;5094923;28;20052;-52
2022/04/22 12:31:59;;;;;;;10.75;5.28;;;;;;;18.67;44.11;100587.38;5094454;28;20051;-56